sensor_id;sensor_type;location;lat;lon;timestamp;P1;durP1;ratioP1;P2;durP2;ratioP2
53931;SDS011;39844;52.496;13.482;2023-04-06T00:02:17;3.47;;;3.20;;
53931;SDS011;39844;52.496;13.482;2023-04-06T00:04:42;3.10;;;2.87;;
53931;SDS011;39844;52.496;13.482;2023-04-06T00:07:09;3.63;;;3.17;;
53931;SDS011;39844;52.496;13.482;2023-04-06T00:09:34;4.53;;;3.40;;
53931;SDS011;39844;52.496;13.482;2023-04-06T00:11:59;4.70;;;2.90;;
53931;SDS011;39844;52.496;13.482;2023-04-06T00:14:25;5.60;;;3.77;;
53931;SDS011;39844;52.496;13.482;2023-04-06T00:16:50;3.70;;;3.10;;
53931;SDS011;39844;52.496;13.482;2023-04-06T00:19:15;3.30;;;2.70;;
53931;SDS011;39844;52.496;13.482;2023-04-06T00:21:41;3.43;;;3.13;;
53931;SDS011;39844;52.496;13.482;2023-04-06T00:24:06;4.77;;;3.17;;
53931;SDS011;39844;52.496;13.482;2023-04-06T00:26:31;3.50;;;3.10;;
53931;SDS011;39844;52.496;13.482;2023-04-06T00:28:57;3.97;;;3.30;;
53931;SDS011;39844;52.496;13.482;2023-04-06T00:31:22;5.33;;;3.17;;
53931;SDS011;39844;52.496;13.482;2023-04-06T00:33:47;3.10;;;2.90;;
53931;SDS011;39844;52.496;13.482;2023-04-06T00:36:13;4.47;;;3.07;;
53931;SDS011;39844;52.496;13.482;2023-04-06T00:38:38;2.77;;;2.57;;
53931;SDS011;39844;52.496;13.482;2023-04-06T00:41:04;4.43;;;2.90;;
53931;SDS011;39844;52.496;13.482;2023-04-06T00:43:29;3.83;;;3.23;;
53931;SDS011;39844;52.496;13.482;2023-04-06T00:45:54;3.90;;;3.50;;
53931;SDS011;39844;52.496;13.482;2023-04-06T00:48:20;3.20;;;2.90;;
53931;SDS011;39844;52.496;13.482;2023-04-06T00:50:45;4.33;;;2.67;;
53931;SDS011;39844;52.496;13.482;2023-04-06T00:53:11;5.53;;;3.30;;
53931;SDS011;39844;52.496;13.482;2023-04-06T00:55:36;3.67;;;3.37;;
53931;SDS011;39844;52.496;13.482;2023-04-06T00:58:01;3.03;;;2.83;;
53931;SDS011;39844;52.496;13.482;2023-04-06T01:00:27;3.13;;;2.93;;
53931;SDS011;39844;52.496;13.482;2023-04-06T01:02:52;3.50;;;3.20;;
53931;SDS011;39844;52.496;13.482;2023-04-06T01:05:18;6.47;;;2.93;;
53931;SDS011;39844;52.496;13.482;2023-04-06T01:07:43;5.17;;;2.80;;
53931;SDS011;39844;52.496;13.482;2023-04-06T01:10:09;3.30;;;3.00;;
53931;SDS011;39844;52.496;13.482;2023-04-06T01:12:34;3.73;;;2.80;;
53931;SDS011;39844;52.496;13.482;2023-04-06T01:15:00;3.67;;;3.37;;
53931;SDS011;39844;52.496;13.482;2023-04-06T01:17:25;3.97;;;3.20;;
53931;SDS011;39844;52.496;13.482;2023-04-06T01:19:50;3.00;;;2.70;;
53931;SDS011;39844;52.496;13.482;2023-04-06T01:22:16;2.93;;;2.77;;
53931;SDS011;39844;52.496;13.482;2023-04-06T01:24:44;4.27;;;2.90;;
53931;SDS011;39844;52.496;13.482;2023-04-06T01:27:10;2.67;;;2.40;;
53931;SDS011;39844;52.496;13.482;2023-04-06T01:29:35;4.17;;;2.67;;
53931;SDS011;39844;52.496;13.482;2023-04-06T01:32:01;3.13;;;2.83;;
53931;SDS011;39844;52.496;13.482;2023-04-06T01:34:26;3.53;;;3.23;;
53931;SDS011;39844;52.496;13.482;2023-04-06T01:36:52;3.00;;;2.73;;
53931;SDS011;39844;52.496;13.482;2023-04-06T01:39:17;2.70;;;2.60;;
53931;SDS011;39844;52.496;13.482;2023-04-06T01:41:43;3.03;;;2.83;;
53931;SDS011;39844;52.496;13.482;2023-04-06T01:44:08;4.47;;;3.40;;
53931;SDS011;39844;52.496;13.482;2023-04-06T01:46:34;3.27;;;2.93;;
53931;SDS011;39844;52.496;13.482;2023-04-06T01:48:59;2.87;;;2.67;;
53931;SDS011;39844;52.496;13.482;2023-04-06T01:51:24;4.00;;;2.93;;
53931;SDS011;39844;52.496;13.482;2023-04-06T01:53:50;2.73;;;2.53;;
53931;SDS011;39844;52.496;13.482;2023-04-06T01:56:15;2.60;;;2.40;;
53931;SDS011;39844;52.496;13.482;2023-04-06T01:58:40;3.33;;;3.03;;
53931;SDS011;39844;52.496;13.482;2023-04-06T02:01:06;3.60;;;3.30;;
53931;SDS011;39844;52.496;13.482;2023-04-06T02:03:31;4.23;;;3.40;;
53931;SDS011;39844;52.496;13.482;2023-04-06T02:05:56;3.33;;;3.07;;
53931;SDS011;39844;52.496;13.482;2023-04-06T02:08:22;4.20;;;3.80;;
53931;SDS011;39844;52.496;13.482;2023-04-06T02:10:47;2.93;;;2.67;;
53931;SDS011;39844;52.496;13.482;2023-04-06T02:13:12;6.07;;;3.20;;
53931;SDS011;39844;52.496;13.482;2023-04-06T02:15:38;3.57;;;3.17;;
53931;SDS011;39844;52.496;13.482;2023-04-06T02:18:03;4.63;;;3.60;;
53931;SDS011;39844;52.496;13.482;2023-04-06T02:20:28;4.33;;;3.10;;
53931;SDS011;39844;52.496;13.482;2023-04-06T02:22:56;3.97;;;3.40;;
53931;SDS011;39844;52.496;13.482;2023-04-06T02:25:23;4.03;;;3.27;;
53931;SDS011;39844;52.496;13.482;2023-04-06T02:27:48;3.00;;;2.80;;
53931;SDS011;39844;52.496;13.482;2023-04-06T02:30:14;3.20;;;2.90;;
53931;SDS011;39844;52.496;13.482;2023-04-06T02:32:39;3.33;;;2.70;;
53931;SDS011;39844;52.496;13.482;2023-04-06T02:35:05;3.33;;;3.10;;
53931;SDS011;39844;52.496;13.482;2023-04-06T02:37:30;3.40;;;3.10;;
53931;SDS011;39844;52.496;13.482;2023-04-06T02:39:55;5.03;;;4.43;;
53931;SDS011;39844;52.496;13.482;2023-04-06T02:42:21;6.00;;;4.13;;
53931;SDS011;39844;52.496;13.482;2023-04-06T02:44:46;7.43;;;3.90;;
53931;SDS011;39844;52.496;13.482;2023-04-06T02:47:11;5.07;;;3.60;;
53931;SDS011;39844;52.496;13.482;2023-04-06T02:49:37;3.83;;;3.43;;
53931;SDS011;39844;52.496;13.482;2023-04-06T02:52:02;6.90;;;3.00;;
53931;SDS011;39844;52.496;13.482;2023-04-06T02:54:28;3.67;;;3.37;;
53931;SDS011;39844;52.496;13.482;2023-04-06T02:56:53;4.77;;;3.77;;
53931;SDS011;39844;52.496;13.482;2023-04-06T02:59:19;2.97;;;2.77;;
53931;SDS011;39844;52.496;13.482;2023-04-06T03:01:44;4.07;;;3.73;;
53931;SDS011;39844;52.496;13.482;2023-04-06T03:04:09;3.33;;;3.10;;
53931;SDS011;39844;52.496;13.482;2023-04-06T03:06:35;5.67;;;3.60;;
53931;SDS011;39844;52.496;13.482;2023-04-06T03:09:00;6.10;;;4.23;;
53931;SDS011;39844;52.496;13.482;2023-04-06T03:11:25;3.90;;;3.60;;
53931;SDS011;39844;52.496;13.482;2023-04-06T03:13:51;7.33;;;3.87;;
53931;SDS011;39844;52.496;13.482;2023-04-06T03:16:16;3.10;;;2.90;;
53931;SDS011;39844;52.496;13.482;2023-04-06T03:18:41;3.27;;;3.07;;
53931;SDS011;39844;52.496;13.482;2023-04-06T03:21:06;3.60;;;3.30;;
53931;SDS011;39844;52.496;13.482;2023-04-06T03:23:32;3.70;;;3.40;;
53931;SDS011;39844;52.496;13.482;2023-04-06T03:25:57;3.93;;;3.37;;
53931;SDS011;39844;52.496;13.482;2023-04-06T03:28:22;5.17;;;4.57;;
53931;SDS011;39844;52.496;13.482;2023-04-06T03:30:48;3.20;;;2.90;;
53931;SDS011;39844;52.496;13.482;2023-04-06T03:33:14;3.43;;;3.00;;
53931;SDS011;39844;52.496;13.482;2023-04-06T03:35:39;3.80;;;3.37;;
53931;SDS011;39844;52.496;13.482;2023-04-06T03:38:05;4.80;;;3.70;;
53931;SDS011;39844;52.496;13.482;2023-04-06T03:40:30;4.07;;;3.40;;
53931;SDS011;39844;52.496;13.482;2023-04-06T03:42:56;3.60;;;3.30;;
53931;SDS011;39844;52.496;13.482;2023-04-06T03:45:21;3.50;;;3.00;;
53931;SDS011;39844;52.496;13.482;2023-04-06T03:47:47;4.37;;;3.37;;
53931;SDS011;39844;52.496;13.482;2023-04-06T03:50:12;3.90;;;3.60;;
53931;SDS011;39844;52.496;13.482;2023-04-06T03:52:37;3.17;;;2.87;;
53931;SDS011;39844;52.496;13.482;2023-04-06T03:55:03;4.27;;;3.20;;
53931;SDS011;39844;52.496;13.482;2023-04-06T03:57:28;4.80;;;3.00;;
53931;SDS011;39844;52.496;13.482;2023-04-06T03:59:54;4.80;;;3.07;;
53931;SDS011;39844;52.496;13.482;2023-04-06T04:02:19;3.00;;;2.77;;
53931;SDS011;39844;52.496;13.482;2023-04-06T04:04:45;3.67;;;2.80;;
53931;SDS011;39844;52.496;13.482;2023-04-06T04:07:10;3.30;;;3.00;;
53931;SDS011;39844;52.496;13.482;2023-04-06T04:09:36;3.37;;;3.07;;
53931;SDS011;39844;52.496;13.482;2023-04-06T04:12:02;3.50;;;3.20;;
53931;SDS011;39844;52.496;13.482;2023-04-06T04:14:27;3.17;;;2.87;;
53931;SDS011;39844;52.496;13.482;2023-04-06T04:16:52;3.93;;;2.97;;
53931;SDS011;39844;52.496;13.482;2023-04-06T04:19:18;6.73;;;3.17;;
53931;SDS011;39844;52.496;13.482;2023-04-06T04:21:44;5.30;;;2.83;;
53931;SDS011;39844;52.496;13.482;2023-04-06T04:24:10;3.87;;;2.47;;
53931;SDS011;39844;52.496;13.482;2023-04-06T04:26:36;3.73;;;2.80;;
53931;SDS011;39844;52.496;13.482;2023-04-06T04:29:02;4.10;;;2.87;;
53931;SDS011;39844;52.496;13.482;2023-04-06T04:31:27;3.87;;;2.83;;
53931;SDS011;39844;52.496;13.482;2023-04-06T04:33:52;4.87;;;3.03;;
53931;SDS011;39844;52.496;13.482;2023-04-06T04:36:18;3.37;;;2.63;;
53931;SDS011;39844;52.496;13.482;2023-04-06T04:38:43;4.90;;;3.07;;
53931;SDS011;39844;52.496;13.482;2023-04-06T04:41:08;3.90;;;3.00;;
53931;SDS011;39844;52.496;13.482;2023-04-06T04:43:34;4.53;;;3.47;;
53931;SDS011;39844;52.496;13.482;2023-04-06T04:45:59;5.37;;;2.97;;
53931;SDS011;39844;52.496;13.482;2023-04-06T04:48:24;4.23;;;2.33;;
53931;SDS011;39844;52.496;13.482;2023-04-06T04:50:50;3.00;;;2.70;;
53931;SDS011;39844;52.496;13.482;2023-04-06T04:53:15;3.07;;;2.67;;
53931;SDS011;39844;52.496;13.482;2023-04-06T04:55:40;2.63;;;2.43;;
53931;SDS011;39844;52.496;13.482;2023-04-06T04:58:06;2.47;;;2.27;;
53931;SDS011;39844;52.496;13.482;2023-04-06T05:00:31;4.40;;;3.17;;
53931;SDS011;39844;52.496;13.482;2023-04-06T05:02:56;2.43;;;2.23;;
53931;SDS011;39844;52.496;13.482;2023-04-06T05:05:22;6.30;;;2.37;;
53931;SDS011;39844;52.496;13.482;2023-04-06T05:07:47;3.47;;;2.50;;
53931;SDS011;39844;52.496;13.482;2023-04-06T05:10:12;3.30;;;2.47;;
53931;SDS011;39844;52.496;13.482;2023-04-06T05:12:38;2.60;;;2.40;;
53931;SDS011;39844;52.496;13.482;2023-04-06T05:15:03;2.60;;;2.30;;
53931;SDS011;39844;52.496;13.482;2023-04-06T05:17:29;5.33;;;2.90;;
53931;SDS011;39844;52.496;13.482;2023-04-06T05:19:54;2.77;;;2.57;;
53931;SDS011;39844;52.496;13.482;2023-04-06T05:22:20;2.57;;;2.43;;
53931;SDS011;39844;52.496;13.482;2023-04-06T05:24:45;2.40;;;2.20;;
53931;SDS011;39844;52.496;13.482;2023-04-06T05:27:11;2.70;;;2.50;;
53931;SDS011;39844;52.496;13.482;2023-04-06T05:29:36;2.93;;;2.30;;
53931;SDS011;39844;52.496;13.482;2023-04-06T05:32:01;3.17;;;2.70;;
53931;SDS011;39844;52.496;13.482;2023-04-06T05:34:27;3.17;;;2.87;;
53931;SDS011;39844;52.496;13.482;2023-04-06T05:36:52;2.77;;;2.50;;
53931;SDS011;39844;52.496;13.482;2023-04-06T05:39:18;2.50;;;2.30;;
53931;SDS011;39844;52.496;13.482;2023-04-06T05:41:43;2.47;;;2.27;;
53931;SDS011;39844;52.496;13.482;2023-04-06T05:44:08;2.37;;;2.27;;
53931;SDS011;39844;52.496;13.482;2023-04-06T05:46:34;2.40;;;2.20;;
53931;SDS011;39844;52.496;13.482;2023-04-06T05:48:59;2.47;;;2.23;;
53931;SDS011;39844;52.496;13.482;2023-04-06T05:51:24;2.70;;;2.50;;
53931;SDS011;39844;52.496;13.482;2023-04-06T05:53:50;2.97;;;2.60;;
53931;SDS011;39844;52.496;13.482;2023-04-06T05:56:15;2.33;;;2.13;;
53931;SDS011;39844;52.496;13.482;2023-04-06T05:58:40;2.60;;;2.03;;
53931;SDS011;39844;52.496;13.482;2023-04-06T06:01:06;3.20;;;2.60;;
53931;SDS011;39844;52.496;13.482;2023-04-06T06:03:31;3.23;;;2.27;;
53931;SDS011;39844;52.496;13.482;2023-04-06T06:06:00;2.43;;;2.23;;
53931;SDS011;39844;52.496;13.482;2023-04-06T06:08:29;2.60;;;2.40;;
53931;SDS011;39844;52.496;13.482;2023-04-06T06:10:55;2.53;;;2.43;;
53931;SDS011;39844;52.496;13.482;2023-04-06T06:13:21;2.57;;;2.40;;
53931;SDS011;39844;52.496;13.482;2023-04-06T06:15:47;2.43;;;2.23;;
53931;SDS011;39844;52.496;13.482;2023-04-06T06:18:13;2.93;;;2.53;;
53931;SDS011;39844;52.496;13.482;2023-04-06T06:20:38;5.30;;;2.50;;
53931;SDS011;39844;52.496;13.482;2023-04-06T06:23:04;2.47;;;2.30;;
53931;SDS011;39844;52.496;13.482;2023-04-06T06:25:29;2.43;;;2.30;;
53931;SDS011;39844;52.496;13.482;2023-04-06T06:27:54;2.10;;;2.00;;
53931;SDS011;39844;52.496;13.482;2023-04-06T06:30:20;3.67;;;2.27;;
53931;SDS011;39844;52.496;13.482;2023-04-06T06:32:45;2.03;;;1.93;;
53931;SDS011;39844;52.496;13.482;2023-04-06T06:35:10;2.57;;;2.37;;
53931;SDS011;39844;52.496;13.482;2023-04-06T06:37:36;2.87;;;2.63;;
53931;SDS011;39844;52.496;13.482;2023-04-06T06:40:01;2.53;;;2.33;;
53931;SDS011;39844;52.496;13.482;2023-04-06T06:42:26;2.40;;;2.27;;
53931;SDS011;39844;52.496;13.482;2023-04-06T06:44:52;2.57;;;2.30;;
53931;SDS011;39844;52.496;13.482;2023-04-06T06:47:17;2.23;;;2.10;;
53931;SDS011;39844;52.496;13.482;2023-04-06T06:49:42;2.63;;;2.30;;
53931;SDS011;39844;52.496;13.482;2023-04-06T06:52:08;3.93;;;2.30;;
53931;SDS011;39844;52.496;13.482;2023-04-06T06:54:33;6.33;;;2.83;;
53931;SDS011;39844;52.496;13.482;2023-04-06T06:56:59;2.27;;;2.10;;
53931;SDS011;39844;52.496;13.482;2023-04-06T06:59:24;2.30;;;2.10;;
53931;SDS011;39844;52.496;13.482;2023-04-06T07:01:49;2.17;;;1.97;;
53931;SDS011;39844;52.496;13.482;2023-04-06T07:04:15;2.73;;;2.53;;
53931;SDS011;39844;52.496;13.482;2023-04-06T07:06:40;4.20;;;2.60;;
53931;SDS011;39844;52.496;13.482;2023-04-06T07:09:06;3.70;;;2.47;;
53931;SDS011;39844;52.496;13.482;2023-04-06T07:11:31;2.43;;;2.23;;
53931;SDS011;39844;52.496;13.482;2023-04-06T07:13:56;3.23;;;2.90;;
53931;SDS011;39844;52.496;13.482;2023-04-06T07:16:22;2.83;;;2.53;;
53931;SDS011;39844;52.496;13.482;2023-04-06T07:18:47;2.50;;;2.30;;
53931;SDS011;39844;52.496;13.482;2023-04-06T07:21:12;2.13;;;2.00;;
53931;SDS011;39844;52.496;13.482;2023-04-06T07:23:38;2.23;;;2.13;;
53931;SDS011;39844;52.496;13.482;2023-04-06T07:26:03;3.97;;;2.60;;
53931;SDS011;39844;52.496;13.482;2023-04-06T07:28:29;2.90;;;2.60;;
53931;SDS011;39844;52.496;13.482;2023-04-06T07:30:54;2.83;;;2.63;;
53931;SDS011;39844;52.496;13.482;2023-04-06T07:33:19;3.03;;;2.73;;
53931;SDS011;39844;52.496;13.482;2023-04-06T07:35:45;7.43;;;2.90;;
53931;SDS011;39844;52.496;13.482;2023-04-06T07:38:11;4.90;;;2.70;;
53931;SDS011;39844;52.496;13.482;2023-04-06T07:40:37;5.13;;;3.40;;
53931;SDS011;39844;52.496;13.482;2023-04-06T07:43:02;5.40;;;3.80;;
53931;SDS011;39844;52.496;13.482;2023-04-06T07:45:28;7.40;;;4.33;;
53931;SDS011;39844;52.496;13.482;2023-04-06T07:47:53;6.83;;;3.77;;
53931;SDS011;39844;52.496;13.482;2023-04-06T07:50:19;8.87;;;3.60;;
53931;SDS011;39844;52.496;13.482;2023-04-06T07:52:44;4.93;;;3.07;;
53931;SDS011;39844;52.496;13.482;2023-04-06T07:55:10;5.43;;;2.87;;
53931;SDS011;39844;52.496;13.482;2023-04-06T07:57:35;3.40;;;3.10;;
53931;SDS011;39844;52.496;13.482;2023-04-06T08:00:00;6.33;;;3.13;;
53931;SDS011;39844;52.496;13.482;2023-04-06T08:02:26;3.10;;;2.80;;
53931;SDS011;39844;52.496;13.482;2023-04-06T08:04:51;4.87;;;2.50;;
53931;SDS011;39844;52.496;13.482;2023-04-06T08:07:18;3.17;;;2.30;;
53931;SDS011;39844;52.496;13.482;2023-04-06T08:09:43;4.13;;;2.47;;
53931;SDS011;39844;52.496;13.482;2023-04-06T08:12:08;2.50;;;2.30;;
53931;SDS011;39844;52.496;13.482;2023-04-06T08:14:34;1.80;;;1.70;;
53931;SDS011;39844;52.496;13.482;2023-04-06T08:16:59;2.23;;;2.10;;
53931;SDS011;39844;52.496;13.482;2023-04-06T08:19:24;3.10;;;1.80;;
53931;SDS011;39844;52.496;13.482;2023-04-06T08:21:50;2.60;;;2.03;;
53931;SDS011;39844;52.496;13.482;2023-04-06T08:24:15;1.77;;;1.63;;
53931;SDS011;39844;52.496;13.482;2023-04-06T08:26:40;8.10;;;2.10;;
53931;SDS011;39844;52.496;13.482;2023-04-06T08:29:06;2.07;;;1.87;;
53931;SDS011;39844;52.496;13.482;2023-04-06T08:31:31;3.13;;;2.03;;
53931;SDS011;39844;52.496;13.482;2023-04-06T08:33:56;1.93;;;1.83;;
53931;SDS011;39844;52.496;13.482;2023-04-06T08:36:22;1.43;;;1.33;;
53931;SDS011;39844;52.496;13.482;2023-04-06T08:38:48;2.17;;;1.60;;
53931;SDS011;39844;52.496;13.482;2023-04-06T08:41:14;2.87;;;1.93;;
53931;SDS011;39844;52.496;13.482;2023-04-06T08:43:46;1.70;;;1.60;;
53931;SDS011;39844;52.496;13.482;2023-04-06T08:46:13;2.07;;;1.70;;
53931;SDS011;39844;52.496;13.482;2023-04-06T08:48:40;1.60;;;1.50;;
53931;SDS011;39844;52.496;13.482;2023-04-06T08:51:06;1.50;;;1.37;;
53931;SDS011;39844;52.496;13.482;2023-04-06T08:53:32;1.70;;;1.50;;
53931;SDS011;39844;52.496;13.482;2023-04-06T08:55:58;2.17;;;1.60;;
53931;SDS011;39844;52.496;13.482;2023-04-06T08:58:25;3.13;;;2.03;;
53931;SDS011;39844;52.496;13.482;2023-04-06T09:00:53;1.50;;;1.40;;
53931;SDS011;39844;52.496;13.482;2023-04-06T09:03:20;1.70;;;1.60;;
53931;SDS011;39844;52.496;13.482;2023-04-06T09:05:46;2.20;;;1.60;;
53931;SDS011;39844;52.496;13.482;2023-04-06T09:08:13;2.10;;;1.90;;
53931;SDS011;39844;52.496;13.482;2023-04-06T09:10:40;1.50;;;1.40;;
53931;SDS011;39844;52.496;13.482;2023-04-06T09:13:06;3.60;;;1.70;;
53931;SDS011;39844;52.496;13.482;2023-04-06T09:15:32;3.27;;;2.07;;
53931;SDS011;39844;52.496;13.482;2023-04-06T09:17:57;1.80;;;1.70;;
53931;SDS011;39844;52.496;13.482;2023-04-06T09:20:23;1.43;;;1.40;;
53931;SDS011;39844;52.496;13.482;2023-04-06T09:22:49;1.30;;;1.30;;
53931;SDS011;39844;52.496;13.482;2023-04-06T09:25:18;3.97;;;1.33;;
53931;SDS011;39844;52.496;13.482;2023-04-06T09:27:44;1.63;;;1.53;;
53931;SDS011;39844;52.496;13.482;2023-04-06T09:30:10;1.63;;;1.37;;
53931;SDS011;39844;52.496;13.482;2023-04-06T09:32:49;2.10;;;1.60;;
53931;SDS011;39844;52.496;13.482;2023-04-06T09:35:17;1.30;;;1.30;;
53931;SDS011;39844;52.496;13.482;2023-04-06T09:37:43;1.17;;;1.17;;
53931;SDS011;39844;52.496;13.482;2023-04-06T09:40:09;1.47;;;1.37;;
53931;SDS011;39844;52.496;13.482;2023-04-06T09:42:35;3.00;;;1.43;;
53931;SDS011;39844;52.496;13.482;2023-04-06T09:45:01;1.70;;;1.60;;
53931;SDS011;39844;52.496;13.482;2023-04-06T09:47:27;1.70;;;1.00;;
53931;SDS011;39844;52.496;13.482;2023-04-06T09:49:58;1.00;;;1.00;;
53931;SDS011;39844;52.496;13.482;2023-04-06T09:52:30;2.20;;;1.30;;
53931;SDS011;39844;52.496;13.482;2023-04-06T09:54:59;1.60;;;1.50;;
53931;SDS011;39844;52.496;13.482;2023-04-06T10:00:13;1.30;;;1.30;;
53931;SDS011;39844;52.496;13.482;2023-04-06T10:05:32;2.80;;;1.50;;
53931;SDS011;39844;52.496;13.482;2023-04-06T10:08:06;1.03;;;1.03;;
53931;SDS011;39844;52.496;13.482;2023-04-06T10:10:34;3.37;;;1.50;;
53931;SDS011;39844;52.496;13.482;2023-04-06T10:12:59;1.30;;;1.30;;
53931;SDS011;39844;52.496;13.482;2023-04-06T10:15:25;2.40;;;1.40;;
53931;SDS011;39844;52.496;13.482;2023-04-06T10:17:52;1.43;;;1.33;;
53931;SDS011;39844;52.496;13.482;2023-04-06T10:20:21;1.67;;;1.57;;
53931;SDS011;39844;52.496;13.482;2023-04-06T10:25:35;1.43;;;1.33;;
53931;SDS011;39844;52.496;13.482;2023-04-06T10:28:07;1.40;;;1.30;;
53931;SDS011;39844;52.496;13.482;2023-04-06T10:30:34;1.33;;;1.33;;
53931;SDS011;39844;52.496;13.482;2023-04-06T10:33:00;3.27;;;2.20;;
53931;SDS011;39844;52.496;13.482;2023-04-06T10:35:36;1.30;;;1.30;;
53931;SDS011;39844;52.496;13.482;2023-04-06T10:38:02;1.40;;;1.30;;
53931;SDS011;39844;52.496;13.482;2023-04-06T10:40:29;2.73;;;1.50;;
53931;SDS011;39844;52.496;13.482;2023-04-06T10:42:54;3.40;;;1.10;;
53931;SDS011;39844;52.496;13.482;2023-04-06T10:45:26;1.90;;;1.20;;
53931;SDS011;39844;52.496;13.482;2023-04-06T10:47:56;1.20;;;1.20;;
53931;SDS011;39844;52.496;13.482;2023-04-06T10:50:22;2.20;;;1.33;;
53931;SDS011;39844;52.496;13.482;2023-04-06T10:52:57;1.30;;;1.30;;
53931;SDS011;39844;52.496;13.482;2023-04-06T10:55:24;1.30;;;1.23;;
53931;SDS011;39844;52.496;13.482;2023-04-06T10:57:51;1.70;;;1.60;;
53931;SDS011;39844;52.496;13.482;2023-04-06T11:00:16;4.20;;;1.40;;
53931;SDS011;39844;52.496;13.482;2023-04-06T11:02:42;1.20;;;1.10;;
53931;SDS011;39844;52.496;13.482;2023-04-06T11:05:08;1.30;;;1.30;;
53931;SDS011;39844;52.496;13.482;2023-04-06T11:07:36;2.70;;;1.50;;
53931;SDS011;39844;52.496;13.482;2023-04-06T11:10:01;1.00;;;1.00;;
53931;SDS011;39844;52.496;13.482;2023-04-06T11:12:27;1.50;;;1.40;;
53931;SDS011;39844;52.496;13.482;2023-04-06T11:14:56;1.70;;;1.60;;
53931;SDS011;39844;52.496;13.482;2023-04-06T11:17:25;1.60;;;1.50;;
53931;SDS011;39844;52.496;13.482;2023-04-06T11:19:52;4.77;;;1.40;;
53931;SDS011;39844;52.496;13.482;2023-04-06T11:22:17;1.30;;;1.20;;
53931;SDS011;39844;52.496;13.482;2023-04-06T11:24:43;2.73;;;1.40;;
53931;SDS011;39844;52.496;13.482;2023-04-06T11:27:08;1.40;;;1.30;;
53931;SDS011;39844;52.496;13.482;2023-04-06T11:29:34;2.60;;;1.50;;
53931;SDS011;39844;52.496;13.482;2023-04-06T11:32:00;1.13;;;1.13;;
53931;SDS011;39844;52.496;13.482;2023-04-06T11:34:28;1.30;;;1.20;;
53931;SDS011;39844;52.496;13.482;2023-04-06T11:36:55;1.17;;;1.00;;
53931;SDS011;39844;52.496;13.482;2023-04-06T11:39:25;1.50;;;1.30;;
53931;SDS011;39844;52.496;13.482;2023-04-06T11:42:01;6.37;;;1.50;;
53931;SDS011;39844;52.496;13.482;2023-04-06T11:44:37;1.03;;;1.03;;
53931;SDS011;39844;52.496;13.482;2023-04-06T11:47:04;5.20;;;1.60;;
53931;SDS011;39844;52.496;13.482;2023-04-06T11:49:31;1.50;;;1.40;;
53931;SDS011;39844;52.496;13.482;2023-04-06T11:51:58;1.70;;;1.40;;
53931;SDS011;39844;52.496;13.482;2023-04-06T11:54:31;1.77;;;1.67;;
53931;SDS011;39844;52.496;13.482;2023-04-06T11:57:00;2.47;;;1.70;;
53931;SDS011;39844;52.496;13.482;2023-04-06T11:59:26;2.27;;;1.53;;
53931;SDS011;39844;52.496;13.482;2023-04-06T12:01:52;1.67;;;1.57;;
53931;SDS011;39844;52.496;13.482;2023-04-06T12:04:17;2.43;;;1.47;;
53931;SDS011;39844;52.496;13.482;2023-04-06T12:06:43;2.10;;;1.50;;
53931;SDS011;39844;52.496;13.482;2023-04-06T12:09:08;1.80;;;1.50;;
53931;SDS011;39844;52.496;13.482;2023-04-06T12:11:34;1.50;;;1.40;;
53931;SDS011;39844;52.496;13.482;2023-04-06T12:13:59;1.93;;;1.30;;
53931;SDS011;39844;52.496;13.482;2023-04-06T12:16:24;1.47;;;1.37;;
53931;SDS011;39844;52.496;13.482;2023-04-06T12:18:50;1.30;;;1.30;;
53931;SDS011;39844;52.496;13.482;2023-04-06T12:21:16;1.47;;;1.47;;
53931;SDS011;39844;52.496;13.482;2023-04-06T12:23:41;1.40;;;1.30;;
53931;SDS011;39844;52.496;13.482;2023-04-06T12:26:06;1.50;;;1.40;;
53931;SDS011;39844;52.496;13.482;2023-04-06T12:28:32;1.53;;;1.43;;
53931;SDS011;39844;52.496;13.482;2023-04-06T12:30:57;2.33;;;1.47;;
53931;SDS011;39844;52.496;13.482;2023-04-06T12:33:22;2.80;;;1.37;;
53931;SDS011;39844;52.496;13.482;2023-04-06T12:35:48;1.77;;;1.67;;
53931;SDS011;39844;52.496;13.482;2023-04-06T12:38:13;1.47;;;1.43;;
53931;SDS011;39844;52.496;13.482;2023-04-06T12:40:39;1.60;;;1.50;;
53931;SDS011;39844;52.496;13.482;2023-04-06T12:43:04;1.77;;;1.43;;
53931;SDS011;39844;52.496;13.482;2023-04-06T12:45:30;1.27;;;1.27;;
53931;SDS011;39844;52.496;13.482;2023-04-06T12:47:56;1.63;;;1.53;;
53931;SDS011;39844;52.496;13.482;2023-04-06T12:50:21;1.40;;;1.30;;
53931;SDS011;39844;52.496;13.482;2023-04-06T12:52:47;1.60;;;1.50;;
53931;SDS011;39844;52.496;13.482;2023-04-06T12:55:12;1.40;;;1.30;;
53931;SDS011;39844;52.496;13.482;2023-04-06T12:57:40;1.47;;;1.37;;
53931;SDS011;39844;52.496;13.482;2023-04-06T13:00:05;1.40;;;1.30;;
53931;SDS011;39844;52.496;13.482;2023-04-06T13:02:31;1.50;;;1.40;;
53931;SDS011;39844;52.496;13.482;2023-04-06T13:04:56;1.37;;;1.30;;
53931;SDS011;39844;52.496;13.482;2023-04-06T13:07:22;1.43;;;1.33;;
53931;SDS011;39844;52.496;13.482;2023-04-06T13:09:47;1.07;;;1.07;;
53931;SDS011;39844;52.496;13.482;2023-04-06T13:12:12;1.97;;;1.40;;
53931;SDS011;39844;52.496;13.482;2023-04-06T13:14:38;1.73;;;1.63;;
53931;SDS011;39844;52.496;13.482;2023-04-06T13:17:03;1.43;;;1.33;;
53931;SDS011;39844;52.496;13.482;2023-04-06T13:19:28;2.00;;;1.40;;
53931;SDS011;39844;52.496;13.482;2023-04-06T13:21:54;2.40;;;1.53;;
53931;SDS011;39844;52.496;13.482;2023-04-06T13:24:19;3.03;;;1.43;;
53931;SDS011;39844;52.496;13.482;2023-04-06T13:26:45;1.47;;;1.37;;
53931;SDS011;39844;52.496;13.482;2023-04-06T13:29:10;1.60;;;1.50;;
53931;SDS011;39844;52.496;13.482;2023-04-06T13:31:36;1.43;;;1.33;;
53931;SDS011;39844;52.496;13.482;2023-04-06T13:34:01;1.53;;;1.40;;
53931;SDS011;39844;52.496;13.482;2023-04-06T13:36:26;1.53;;;1.43;;
53931;SDS011;39844;52.496;13.482;2023-04-06T13:38:52;2.80;;;1.40;;
53931;SDS011;39844;52.496;13.482;2023-04-06T13:41:20;1.30;;;1.30;;
53931;SDS011;39844;52.496;13.482;2023-04-06T13:43:47;1.30;;;1.20;;
53931;SDS011;39844;52.496;13.482;2023-04-06T13:46:12;1.40;;;1.40;;
53931;SDS011;39844;52.496;13.482;2023-04-06T13:48:38;2.57;;;1.30;;
53931;SDS011;39844;52.496;13.482;2023-04-06T13:51:10;1.50;;;1.40;;
53931;SDS011;39844;52.496;13.482;2023-04-06T13:53:36;2.37;;;1.60;;
53931;SDS011;39844;52.496;13.482;2023-04-06T13:56:02;1.50;;;1.40;;
53931;SDS011;39844;52.496;13.482;2023-04-06T13:58:27;1.50;;;1.40;;
53931;SDS011;39844;52.496;13.482;2023-04-06T14:00:53;1.50;;;1.40;;
53931;SDS011;39844;52.496;13.482;2023-04-06T14:03:18;1.57;;;1.47;;
53931;SDS011;39844;52.496;13.482;2023-04-06T14:05:44;1.70;;;1.47;;
53931;SDS011;39844;52.496;13.482;2023-04-06T14:08:10;1.97;;;1.50;;
53931;SDS011;39844;52.496;13.482;2023-04-06T14:10:39;1.67;;;1.57;;
53931;SDS011;39844;52.496;13.482;2023-04-06T14:13:05;1.87;;;1.37;;
53931;SDS011;39844;52.496;13.482;2023-04-06T14:15:30;1.60;;;1.50;;
53931;SDS011;39844;52.496;13.482;2023-04-06T14:17:56;3.03;;;1.93;;
53931;SDS011;39844;52.496;13.482;2023-04-06T14:20:21;1.40;;;1.30;;
53931;SDS011;39844;52.496;13.482;2023-04-06T14:22:46;1.53;;;1.43;;
53931;SDS011;39844;52.496;13.482;2023-04-06T14:25:11;1.33;;;1.33;;
53931;SDS011;39844;52.496;13.482;2023-04-06T14:27:37;2.17;;;1.43;;
53931;SDS011;39844;52.496;13.482;2023-04-06T14:30:02;2.33;;;1.50;;
53931;SDS011;39844;52.496;13.482;2023-04-06T14:32:28;2.57;;;1.60;;
53931;SDS011;39844;52.496;13.482;2023-04-06T14:34:53;1.10;;;1.10;;